sensor_id;sensor_type;location;lat;lon;timestamp;P1;durP1;ratioP1;P2;durP2;ratioP2
13866;SDS011;7003;46.982;15.248;2022-10-23T00:01:39;1.40;;;1.10;;
13866;SDS011;7003;46.982;15.248;2022-10-23T00:04:10;1.60;;;1.50;;
13866;SDS011;7003;46.982;15.248;2022-10-23T00:06:41;1.43;;;1.10;;
13866;SDS011;7003;46.982;15.248;2022-10-23T00:09:11;1.63;;;1.53;;
13866;SDS011;7003;46.982;15.248;2022-10-23T00:11:43;3.00;;;1.27;;
13866;SDS011;7003;46.982;15.248;2022-10-23T00:14:12;2.10;;;1.40;;
13866;SDS011;7003;46.982;15.248;2022-10-23T00:16:41;0.80;;;0.80;;
13866;SDS011;7003;46.982;15.248;2022-10-23T00:19:10;0.70;;;0.70;;
13866;SDS011;7003;46.982;15.248;2022-10-23T00:21:40;4.80;;;1.30;;
13866;SDS011;7003;46.982;15.248;2022-10-23T00:24:07;0.90;;;0.90;;
13866;SDS011;7003;46.982;15.248;2022-10-23T00:26:35;3.80;;;1.27;;
13866;SDS011;7003;46.982;15.248;2022-10-23T00:29:06;1.10;;;1.00;;
13866;SDS011;7003;46.982;15.248;2022-10-23T00:31:34;1.37;;;0.80;;
13866;SDS011;7003;46.982;15.248;2022-10-23T00:34:04;1.20;;;1.00;;
13866;SDS011;7003;46.982;15.248;2022-10-23T00:36:32;1.50;;;1.10;;
13866;SDS011;7003;46.982;15.248;2022-10-23T00:38:59;1.27;;;1.10;;
13866;SDS011;7003;46.982;15.248;2022-10-23T00:41:27;0.80;;;0.80;;
13866;SDS011;7003;46.982;15.248;2022-10-23T00:44:00;2.90;;;1.03;;
13866;SDS011;7003;46.982;15.248;2022-10-23T00:46:35;4.83;;;1.67;;
13866;SDS011;7003;46.982;15.248;2022-10-23T00:49:05;2.50;;;1.57;;
13866;SDS011;7003;46.982;15.248;2022-10-23T00:51:38;0.60;;;0.60;;
13866;SDS011;7003;46.982;15.248;2022-10-23T00:54:11;1.00;;;0.87;;
13866;SDS011;7003;46.982;15.248;2022-10-23T00:56:41;1.00;;;0.90;;
13866;SDS011;7003;46.982;15.248;2022-10-23T00:59:11;0.63;;;0.63;;
13866;SDS011;7003;46.982;15.248;2022-10-23T01:01:41;1.23;;;0.90;;
13866;SDS011;7003;46.982;15.248;2022-10-23T01:04:09;0.67;;;0.67;;
13866;SDS011;7003;46.982;15.248;2022-10-23T01:06:40;0.60;;;0.60;;
13866;SDS011;7003;46.982;15.248;2022-10-23T01:09:20;1.47;;;1.20;;
13866;SDS011;7003;46.982;15.248;2022-10-23T01:11:54;3.60;;;1.87;;
13866;SDS011;7003;46.982;15.248;2022-10-23T01:14:31;0.97;;;0.90;;
13866;SDS011;7003;46.982;15.248;2022-10-23T01:17:15;0.77;;;0.77;;
13866;SDS011;7003;46.982;15.248;2022-10-23T01:19:52;0.30;;;0.30;;
13866;SDS011;7003;46.982;15.248;2022-10-23T01:22:32;0.63;;;0.63;;
13866;SDS011;7003;46.982;15.248;2022-10-23T01:25:11;0.57;;;0.57;;
13866;SDS011;7003;46.982;15.248;2022-10-23T01:27:51;0.93;;;0.93;;
13866;SDS011;7003;46.982;15.248;2022-10-23T01:30:28;0.77;;;0.77;;
13866;SDS011;7003;46.982;15.248;2022-10-23T01:33:00;1.00;;;0.80;;
13866;SDS011;7003;46.982;15.248;2022-10-23T01:35:35;15.10;;;2.20;;
13866;SDS011;7003;46.982;15.248;2022-10-23T01:38:07;2.43;;;0.70;;
13866;SDS011;7003;46.982;15.248;2022-10-23T01:40:41;0.67;;;0.67;;
13866;SDS011;7003;46.982;15.248;2022-10-23T01:43:15;0.80;;;0.60;;
13866;SDS011;7003;46.982;15.248;2022-10-23T01:45:47;0.50;;;0.50;;
13866;SDS011;7003;46.982;15.248;2022-10-23T01:48:20;0.50;;;0.50;;
13866;SDS011;7003;46.982;15.248;2022-10-23T01:50:54;0.20;;;0.20;;
13866;SDS011;7003;46.982;15.248;2022-10-23T01:53:24;0.57;;;0.57;;
13866;SDS011;7003;46.982;15.248;2022-10-23T01:55:57;0.40;;;0.40;;
13866;SDS011;7003;46.982;15.248;2022-10-23T01:58:31;0.40;;;0.40;;
13866;SDS011;7003;46.982;15.248;2022-10-23T02:01:03;6.97;;;0.97;;
13866;SDS011;7003;46.982;15.248;2022-10-23T02:03:35;1.00;;;0.60;;
13866;SDS011;7003;46.982;15.248;2022-10-23T02:06:05;1.10;;;0.60;;
13866;SDS011;7003;46.982;15.248;2022-10-23T02:08:32;0.93;;;0.63;;
13866;SDS011;7003;46.982;15.248;2022-10-23T02:11:01;0.50;;;0.50;;
13866;SDS011;7003;46.982;15.248;2022-10-23T02:13:36;6.07;;;0.50;;
13866;SDS011;7003;46.982;15.248;2022-10-23T02:16:10;1.00;;;0.77;;
13866;SDS011;7003;46.982;15.248;2022-10-23T02:18:50;2.87;;;0.97;;
13866;SDS011;7003;46.982;15.248;2022-10-23T02:21:26;0.60;;;0.53;;
13866;SDS011;7003;46.982;15.248;2022-10-23T02:24:00;0.40;;;0.40;;
13866;SDS011;7003;46.982;15.248;2022-10-23T02:26:32;1.03;;;0.70;;
13866;SDS011;7003;46.982;15.248;2022-10-23T02:29:07;1.20;;;0.73;;
13866;SDS011;7003;46.982;15.248;2022-10-23T02:31:40;0.50;;;0.50;;
13866;SDS011;7003;46.982;15.248;2022-10-23T02:34:07;0.73;;;0.73;;
13866;SDS011;7003;46.982;15.248;2022-10-23T02:36:36;1.23;;;0.63;;
13866;SDS011;7003;46.982;15.248;2022-10-23T02:39:03;0.43;;;0.43;;
13866;SDS011;7003;46.982;15.248;2022-10-23T02:41:34;0.67;;;0.53;;
13866;SDS011;7003;46.982;15.248;2022-10-23T02:47:01;7.37;;;0.80;;
13866;SDS011;7003;46.982;15.248;2022-10-23T02:49:36;0.70;;;0.60;;
13866;SDS011;7003;46.982;15.248;2022-10-23T02:52:12;0.47;;;0.47;;
13866;SDS011;7003;46.982;15.248;2022-10-23T02:54:47;3.47;;;0.70;;
13866;SDS011;7003;46.982;15.248;2022-10-23T02:57:27;0.30;;;0.30;;
13866;SDS011;7003;46.982;15.248;2022-10-23T03:00:04;1.30;;;0.57;;
13866;SDS011;7003;46.982;15.248;2022-10-23T03:02:36;0.60;;;0.60;;
13866;SDS011;7003;46.982;15.248;2022-10-23T03:05:08;4.13;;;1.40;;
13866;SDS011;7003;46.982;15.248;2022-10-23T03:07:41;0.60;;;0.60;;
13866;SDS011;7003;46.982;15.248;2022-10-23T03:10:09;4.33;;;0.57;;
13866;SDS011;7003;46.982;15.248;2022-10-23T03:12:37;0.97;;;0.73;;
13866;SDS011;7003;46.982;15.248;2022-10-23T03:15:06;0.90;;;0.70;;
13866;SDS011;7003;46.982;15.248;2022-10-23T03:17:34;0.50;;;0.50;;
13866;SDS011;7003;46.982;15.248;2022-10-23T03:20:01;0.23;;;0.23;;
13866;SDS011;7003;46.982;15.248;2022-10-23T03:22:28;0.57;;;0.57;;
13866;SDS011;7003;46.982;15.248;2022-10-23T03:24:55;0.37;;;0.37;;
13866;SDS011;7003;46.982;15.248;2022-10-23T03:27:22;1.00;;;0.80;;
13866;SDS011;7003;46.982;15.248;2022-10-23T03:29:51;0.80;;;0.80;;
13866;SDS011;7003;46.982;15.248;2022-10-23T03:32:22;0.30;;;0.30;;
13866;SDS011;7003;46.982;15.248;2022-10-23T03:34:51;1.27;;;0.83;;
13866;SDS011;7003;46.982;15.248;2022-10-23T03:37:18;0.40;;;0.40;;
13866;SDS011;7003;46.982;15.248;2022-10-23T03:39:45;2.93;;;0.47;;
13866;SDS011;7003;46.982;15.248;2022-10-23T03:42:12;0.50;;;0.50;;
13866;SDS011;7003;46.982;15.248;2022-10-23T03:44:42;0.53;;;0.53;;
13866;SDS011;7003;46.982;15.248;2022-10-23T03:47:09;17.03;;;1.43;;
13866;SDS011;7003;46.982;15.248;2022-10-23T03:49:38;0.50;;;0.50;;
13866;SDS011;7003;46.982;15.248;2022-10-23T03:52:05;0.37;;;0.37;;
13866;SDS011;7003;46.982;15.248;2022-10-23T03:54:35;0.40;;;0.40;;
13866;SDS011;7003;46.982;15.248;2022-10-23T03:57:02;0.37;;;0.33;;
13866;SDS011;7003;46.982;15.248;2022-10-23T03:59:32;0.40;;;0.40;;
13866;SDS011;7003;46.982;15.248;2022-10-23T04:01:59;2.37;;;0.53;;
13866;SDS011;7003;46.982;15.248;2022-10-23T04:04:28;0.60;;;0.60;;
13866;SDS011;7003;46.982;15.248;2022-10-23T04:06:59;0.40;;;0.40;;
13866;SDS011;7003;46.982;15.248;2022-10-23T04:09:26;0.60;;;0.50;;
13866;SDS011;7003;46.982;15.248;2022-10-23T04:11:55;0.70;;;0.57;;
13866;SDS011;7003;46.982;15.248;2022-10-23T04:14:24;0.30;;;0.30;;
13866;SDS011;7003;46.982;15.248;2022-10-23T04:16:54;0.97;;;0.73;;
13866;SDS011;7003;46.982;15.248;2022-10-23T04:19:21;0.30;;;0.30;;
13866;SDS011;7003;46.982;15.248;2022-10-23T04:21:51;0.53;;;0.53;;
13866;SDS011;7003;46.982;15.248;2022-10-23T04:24:23;0.33;;;0.33;;
13866;SDS011;7003;46.982;15.248;2022-10-23T04:26:52;1.37;;;0.60;;
13866;SDS011;7003;46.982;15.248;2022-10-23T04:29:22;0.77;;;0.77;;
13866;SDS011;7003;46.982;15.248;2022-10-23T04:31:49;0.33;;;0.30;;
13866;SDS011;7003;46.982;15.248;2022-10-23T04:34:19;1.20;;;0.73;;
13866;SDS011;7003;46.982;15.248;2022-10-23T04:36:46;3.97;;;1.30;;
13866;SDS011;7003;46.982;15.248;2022-10-23T04:39:15;1.17;;;1.07;;
13866;SDS011;7003;46.982;15.248;2022-10-23T04:41:44;0.40;;;0.33;;
13866;SDS011;7003;46.982;15.248;2022-10-23T04:44:11;0.53;;;0.47;;
13866;SDS011;7003;46.982;15.248;2022-10-23T04:46:40;3.10;;;1.17;;
13866;SDS011;7003;46.982;15.248;2022-10-23T04:49:09;0.87;;;0.83;;
13866;SDS011;7003;46.982;15.248;2022-10-23T04:51:36;0.60;;;0.60;;
13866;SDS011;7003;46.982;15.248;2022-10-23T04:54:05;0.73;;;0.73;;
13866;SDS011;7003;46.982;15.248;2022-10-23T04:56:32;2.70;;;0.83;;
13866;SDS011;7003;46.982;15.248;2022-10-23T04:59:04;14.23;;;1.13;;
13866;SDS011;7003;46.982;15.248;2022-10-23T05:01:41;0.97;;;0.77;;
13866;SDS011;7003;46.982;15.248;2022-10-23T05:04:08;2.67;;;0.73;;
13866;SDS011;7003;46.982;15.248;2022-10-23T05:06:35;0.60;;;0.60;;
13866;SDS011;7003;46.982;15.248;2022-10-23T05:09:03;1.13;;;1.03;;
13866;SDS011;7003;46.982;15.248;2022-10-23T05:11:30;2.60;;;1.10;;
13866;SDS011;7003;46.982;15.248;2022-10-23T05:13:58;1.60;;;1.50;;
13866;SDS011;7003;46.982;15.248;2022-10-23T05:16:30;1.40;;;1.13;;
13866;SDS011;7003;46.982;15.248;2022-10-23T05:19:03;1.70;;;1.10;;
13866;SDS011;7003;46.982;15.248;2022-10-23T05:21:35;10.50;;;2.40;;
13866;SDS011;7003;46.982;15.248;2022-10-23T05:24:07;0.77;;;0.73;;
13866;SDS011;7003;46.982;15.248;2022-10-23T05:26:40;0.20;;;0.20;;
13866;SDS011;7003;46.982;15.248;2022-10-23T05:29:08;12.93;;;4.20;;
13866;SDS011;7003;46.982;15.248;2022-10-23T05:31:39;0.60;;;0.50;;
13866;SDS011;7003;46.982;15.248;2022-10-23T05:34:11;0.40;;;0.40;;
13866;SDS011;7003;46.982;15.248;2022-10-23T05:36:43;0.53;;;0.53;;
13866;SDS011;7003;46.982;15.248;2022-10-23T05:39:15;0.87;;;0.83;;
13866;SDS011;7003;46.982;15.248;2022-10-23T05:41:47;1.13;;;1.03;;
13866;SDS011;7003;46.982;15.248;2022-10-23T05:44:16;0.80;;;0.80;;
13866;SDS011;7003;46.982;15.248;2022-10-23T05:46:47;0.60;;;0.60;;
13866;SDS011;7003;46.982;15.248;2022-10-23T05:49:15;1.43;;;1.10;;
13866;SDS011;7003;46.982;15.248;2022-10-23T05:51:43;1.33;;;0.80;;
13866;SDS011;7003;46.982;15.248;2022-10-23T05:54:11;0.60;;;0.60;;
13866;SDS011;7003;46.982;15.248;2022-10-23T05:56:39;9.43;;;0.87;;
13866;SDS011;7003;46.982;15.248;2022-10-23T05:59:08;2.70;;;1.23;;
13866;SDS011;7003;46.982;15.248;2022-10-23T06:01:41;1.07;;;0.73;;
13866;SDS011;7003;46.982;15.248;2022-10-23T06:04:12;8.60;;;1.03;;
13866;SDS011;7003;46.982;15.248;2022-10-23T06:06:40;0.73;;;0.73;;
13866;SDS011;7003;46.982;15.248;2022-10-23T06:09:11;2.53;;;1.13;;
13866;SDS011;7003;46.982;15.248;2022-10-23T06:11:40;1.03;;;0.93;;
13866;SDS011;7003;46.982;15.248;2022-10-23T06:14:10;1.33;;;0.70;;
13866;SDS011;7003;46.982;15.248;2022-10-23T06:16:41;1.27;;;0.70;;
13866;SDS011;7003;46.982;15.248;2022-10-23T06:19:13;1.23;;;1.13;;
13866;SDS011;7003;46.982;15.248;2022-10-23T06:21:41;0.90;;;0.73;;
13866;SDS011;7003;46.982;15.248;2022-10-23T06:24:10;1.27;;;1.10;;
13866;SDS011;7003;46.982;15.248;2022-10-23T06:26:38;1.37;;;1.27;;
13866;SDS011;7003;46.982;15.248;2022-10-23T06:29:06;1.90;;;1.10;;
13866;SDS011;7003;46.982;15.248;2022-10-23T06:31:35;8.40;;;1.40;;
13866;SDS011;7003;46.982;15.248;2022-10-23T06:34:05;1.47;;;0.90;;
13866;SDS011;7003;46.982;15.248;2022-10-23T06:36:34;1.00;;;0.87;;
13866;SDS011;7003;46.982;15.248;2022-10-23T06:39:03;1.17;;;1.07;;
13866;SDS011;7003;46.982;15.248;2022-10-23T06:41:34;0.83;;;0.83;;
13866;SDS011;7003;46.982;15.248;2022-10-23T06:44:05;1.50;;;1.40;;
13866;SDS011;7003;46.982;15.248;2022-10-23T06:46:36;1.00;;;1.00;;
13866;SDS011;7003;46.982;15.248;2022-10-23T06:49:04;1.40;;;1.10;;
13866;SDS011;7003;46.982;15.248;2022-10-23T06:51:32;1.17;;;1.07;;
13866;SDS011;7003;46.982;15.248;2022-10-23T06:54:02;0.95;;;0.85;;
13866;SDS011;7003;46.982;15.248;2022-10-23T06:56:30;0.83;;;0.70;;
13866;SDS011;7003;46.982;15.248;2022-10-23T06:59:02;1.20;;;1.10;;
13866;SDS011;7003;46.982;15.248;2022-10-23T07:01:32;0.82;;;0.82;;
13866;SDS011;7003;46.982;15.248;2022-10-23T07:04:00;0.85;;;0.77;;
13866;SDS011;7003;46.982;15.248;2022-10-23T07:06:31;2.05;;;1.85;;
13866;SDS011;7003;46.982;15.248;2022-10-23T07:09:01;1.90;;;1.80;;
13866;SDS011;7003;46.982;15.248;2022-10-23T07:11:29;5.60;;;2.80;;
13866;SDS011;7003;46.982;15.248;2022-10-23T07:13:58;1.65;;;1.55;;
13866;SDS011;7003;46.982;15.248;2022-10-23T07:16:26;1.90;;;1.80;;
13866;SDS011;7003;46.982;15.248;2022-10-23T07:18:55;1.65;;;1.55;;
13866;SDS011;7003;46.982;15.248;2022-10-23T07:21:29;2.08;;;1.55;;
13866;SDS011;7003;46.982;15.248;2022-10-23T07:24:01;1.65;;;1.55;;
13866;SDS011;7003;46.982;15.248;2022-10-23T07:26:29;2.63;;;1.95;;
13866;SDS011;7003;46.982;15.248;2022-10-23T07:28:58;1.55;;;1.45;;
13866;SDS011;7003;46.982;15.248;2022-10-23T07:31:30;1.40;;;1.30;;
13866;SDS011;7003;46.982;15.248;2022-10-23T07:34:00;1.40;;;1.30;;
13866;SDS011;7003;46.982;15.248;2022-10-23T07:36:27;1.13;;;0.90;;
13866;SDS011;7003;46.982;15.248;2022-10-23T07:38:56;2.00;;;1.63;;
13866;SDS011;7003;46.982;15.248;2022-10-23T07:41:25;1.60;;;1.13;;
13866;SDS011;7003;46.982;15.248;2022-10-23T07:43:56;1.50;;;1.40;;
13866;SDS011;7003;46.982;15.248;2022-10-23T07:46:27;0.93;;;0.88;;
13866;SDS011;7003;46.982;15.248;2022-10-23T07:48:58;2.20;;;1.88;;
13866;SDS011;7003;46.982;15.248;2022-10-23T07:51:26;1.40;;;1.08;;
13866;SDS011;7003;46.982;15.248;2022-10-23T07:53:54;1.75;;;1.63;;
13866;SDS011;7003;46.982;15.248;2022-10-23T07:56:23;1.45;;;1.35;;
13866;SDS011;7003;46.982;15.248;2022-10-23T07:58:57;2.22;;;1.38;;
13866;SDS011;7003;46.982;15.248;2022-10-23T08:01:29;0.93;;;0.90;;
13866;SDS011;7003;46.982;15.248;2022-10-23T08:03:59;1.02;;;1.02;;
13866;SDS011;7003;46.982;15.248;2022-10-23T08:06:26;1.85;;;1.30;;
13866;SDS011;7003;46.982;15.248;2022-10-23T08:08:54;1.52;;;1.30;;
13866;SDS011;7003;46.982;15.248;2022-10-23T08:11:23;2.83;;;1.50;;
13866;SDS011;7003;46.982;15.248;2022-10-23T08:13:58;1.98;;;1.50;;
13866;SDS011;7003;46.982;15.248;2022-10-23T08:16:27;1.67;;;1.52;;
13866;SDS011;7003;46.982;15.248;2022-10-23T08:18:54;1.40;;;1.30;;
13866;SDS011;7003;46.982;15.248;2022-10-23T08:21:22;1.00;;;0.95;;
13866;SDS011;7003;46.982;15.248;2022-10-23T08:23:52;1.35;;;1.25;;
13866;SDS011;7003;46.982;15.248;2022-10-23T08:26:20;1.98;;;1.27;;
13866;SDS011;7003;46.982;15.248;2022-10-23T08:28:49;1.73;;;1.25;;
13866;SDS011;7003;46.982;15.248;2022-10-23T08:31:19;3.30;;;2.20;;
13866;SDS011;7003;46.982;15.248;2022-10-23T08:33:48;3.33;;;2.13;;
13866;SDS011;7003;46.982;15.248;2022-10-23T08:36:20;4.38;;;2.60;;
13866;SDS011;7003;46.982;15.248;2022-10-23T08:38:53;2.60;;;1.92;;
13866;SDS011;7003;46.982;15.248;2022-10-23T08:41:23;1.63;;;1.50;;
13866;SDS011;7003;46.982;15.248;2022-10-23T08:43:56;2.10;;;2.00;;
13866;SDS011;7003;46.982;15.248;2022-10-23T08:46:33;4.95;;;1.75;;
13866;SDS011;7003;46.982;15.248;2022-10-23T08:49:16;2.30;;;1.60;;
13866;SDS011;7003;46.982;15.248;2022-10-23T08:51:53;2.50;;;1.70;;
13866;SDS011;7003;46.982;15.248;2022-10-23T08:54:27;2.30;;;1.35;;
13866;SDS011;7003;46.982;15.248;2022-10-23T08:57:03;1.35;;;1.23;;
13866;SDS011;7003;46.982;15.248;2022-10-23T08:59:43;1.50;;;1.10;;
13866;SDS011;7003;46.982;15.248;2022-10-23T09:02:18;4.95;;;1.33;;
13866;SDS011;7003;46.982;15.248;2022-10-23T09:04:53;1.27;;;1.17;;
13866;SDS011;7003;46.982;15.248;2022-10-23T09:07:26;1.20;;;1.02;;
13866;SDS011;7003;46.982;15.248;2022-10-23T09:10:09;1.38;;;1.23;;
13866;SDS011;7003;46.982;15.248;2022-10-23T09:12:58;1.30;;;1.20;;
13866;SDS011;7003;46.982;15.248;2022-10-23T09:15:39;1.20;;;1.10;;
13866;SDS011;7003;46.982;15.248;2022-10-23T09:18:13;1.40;;;1.20;;
13866;SDS011;7003;46.982;15.248;2022-10-23T09:20:43;1.42;;;1.33;;
13866;SDS011;7003;46.982;15.248;2022-10-23T09:23:13;1.33;;;1.23;;
13866;SDS011;7003;46.982;15.248;2022-10-23T09:25:44;7.28;;;1.35;;
13866;SDS011;7003;46.982;15.248;2022-10-23T09:28:17;1.30;;;1.20;;
13866;SDS011;7003;46.982;15.248;2022-10-23T09:30:48;1.70;;;1.20;;
13866;SDS011;7003;46.982;15.248;2022-10-23T09:33:20;1.00;;;0.82;;
13866;SDS011;7003;46.982;15.248;2022-10-23T09:35:53;5.32;;;1.02;;
13866;SDS011;7003;46.982;15.248;2022-10-23T09:38:27;1.10;;;1.00;;
13866;SDS011;7003;46.982;15.248;2022-10-23T09:41:01;1.00;;;0.95;;
13866;SDS011;7003;46.982;15.248;2022-10-23T09:43:35;1.23;;;0.98;;
13866;SDS011;7003;46.982;15.248;2022-10-23T09:46:06;1.25;;;1.15;;
13866;SDS011;7003;46.982;15.248;2022-10-23T09:48:37;0.90;;;0.90;;
13866;SDS011;7003;46.982;15.248;2022-10-23T09:51:14;0.95;;;0.90;;
13866;SDS011;7003;46.982;15.248;2022-10-23T09:53:48;1.20;;;0.82;;
13866;SDS011;7003;46.982;15.248;2022-10-23T09:56:24;1.13;;;0.93;;
13866;SDS011;7003;46.982;15.248;2022-10-23T09:58:54;1.73;;;1.38;;
13866;SDS011;7003;46.982;15.248;2022-10-23T10:01:27;1.00;;;0.90;;
13866;SDS011;7003;46.982;15.248;2022-10-23T10:04:01;0.50;;;0.50;;
13866;SDS011;7003;46.982;15.248;2022-10-23T10:06:32;0.50;;;0.50;;
13866;SDS011;7003;46.982;15.248;2022-10-23T10:09:01;0.93;;;0.57;;
13866;SDS011;7003;46.982;15.248;2022-10-23T10:11:36;1.27;;;1.10;;
13866;SDS011;7003;46.982;15.248;2022-10-23T10:14:21;0.70;;;0.70;;
13866;SDS011;7003;46.982;15.248;2022-10-23T10:17:12;0.70;;;0.70;;
13866;SDS011;7003;46.982;15.248;2022-10-23T10:19:58;1.75;;;1.13;;
13866;SDS011;7003;46.982;15.248;2022-10-23T10:22:45;0.65;;;0.65;;
13866;SDS011;7003;46.982;15.248;2022-10-23T10:25:24;0.75;;;0.63;;
13866;SDS011;7003;46.982;15.248;2022-10-23T10:28:03;1.13;;;0.82;;
13866;SDS011;7003;46.982;15.248;2022-10-23T10:30:51;0.82;;;0.82;;
13866;SDS011;7003;46.982;15.248;2022-10-23T10:33:32;0.88;;;0.88;;
13866;SDS011;7003;46.982;15.248;2022-10-23T10:36:11;0.45;;;0.45;;
13866;SDS011;7003;46.982;15.248;2022-10-23T10:38:55;1.52;;;1.40;;
13866;SDS011;7003;46.982;15.248;2022-10-23T10:41:34;1.25;;;1.15;;
13866;SDS011;7003;46.982;15.248;2022-10-23T10:44:13;1.50;;;1.40;;
13866;SDS011;7003;46.982;15.248;2022-10-23T10:47:04;1.20;;;1.10;;
13866;SDS011;7003;46.982;15.248;2022-10-23T10:49:41;0.88;;;0.80;;
13866;SDS011;7003;46.982;15.248;2022-10-23T10:52:21;3.70;;;1.45;;
13866;SDS011;7003;46.982;15.248;2022-10-23T10:54:58;1.05;;;0.95;;
13866;SDS011;7003;46.982;15.248;2022-10-23T10:57:43;2.88;;;1.10;;
13866;SDS011;7003;46.982;15.248;2022-10-23T11:00:14;0.95;;;0.90;;
13866;SDS011;7003;46.982;15.248;2022-10-23T11:02:44;2.00;;;1.23;;
13866;SDS011;7003;46.982;15.248;2022-10-23T11:05:16;1.67;;;1.27;;
13866;SDS011;7003;46.982;15.248;2022-10-23T11:07:55;1.65;;;1.05;;
13866;SDS011;7003;46.982;15.248;2022-10-23T11:10:26;1.60;;;1.35;;
13866;SDS011;7003;46.982;15.248;2022-10-23T11:12:56;1.50;;;1.40;;
13866;SDS011;7003;46.982;15.248;2022-10-23T11:15:25;0.80;;;0.80;;
13866;SDS011;7003;46.982;15.248;2022-10-23T11:17:55;1.45;;;1.13;;
13866;SDS011;7003;46.982;15.248;2022-10-23T11:20:37;1.50;;;1.40;;
13866;SDS011;7003;46.982;15.248;2022-10-23T11:26:33;1.15;;;0.95;;
13866;SDS011;7003;46.982;15.248;2022-10-23T11:29:15;2.50;;;1.13;;
13866;SDS011;7003;46.982;15.248;2022-10-23T11:32:04;1.42;;;1.23;;
13866;SDS011;7003;46.982;15.248;2022-10-23T11:35:00;0.77;;;0.77;;
13866;SDS011;7003;46.982;15.248;2022-10-23T11:37:39;1.38;;;0.98;;
13866;SDS011;7003;46.982;15.248;2022-10-23T11:40:20;1.20;;;1.10;;
13866;SDS011;7003;46.982;15.248;2022-10-23T11:42:50;0.90;;;0.90;;
13866;SDS011;7003;46.982;15.248;2022-10-23T11:45:27;2.75;;;1.20;;
13866;SDS011;7003;46.982;15.248;2022-10-23T11:48:03;1.60;;;1.35;;
13866;SDS011;7003;46.982;15.248;2022-10-23T11:50:48;1.55;;;1.08;;
13866;SDS011;7003;46.982;15.248;2022-10-23T11:53:26;1.48;;;1.38;;
13866;SDS011;7003;46.982;15.248;2022-10-23T11:56:24;1.42;;;1.25;;
13866;SDS011;7003;46.982;15.248;2022-10-23T11:58:56;0.82;;;0.82;;
13866;SDS011;7003;46.982;15.248;2022-10-23T12:01:29;2.42;;;1.30;;
13866;SDS011;7003;46.982;15.248;2022-10-23T12:04:03;1.00;;;0.90;;
13866;SDS011;7003;46.982;15.248;2022-10-23T12:06:43;1.05;;;1.02;;
13866;SDS011;7003;46.982;15.248;2022-10-23T12:09:24;3.47;;;1.23;;
13866;SDS011;7003;46.982;15.248;2022-10-23T12:12:02;1.25;;;1.00;;
13866;SDS011;7003;46.982;15.248;2022-10-23T12:14:45;1.05;;;0.98;;
13866;SDS011;7003;46.982;15.248;2022-10-23T12:17:24;1.20;;;0.90;;
13866;SDS011;7003;46.982;15.248;2022-10-23T12:20:02;1.05;;;0.95;;
13866;SDS011;7003;46.982;15.248;2022-10-23T12:22:46;1.35;;;1.13;;
13866;SDS011;7003;46.982;15.248;2022-10-23T12:25:22;1.17;;;1.08;;
13866;SDS011;7003;46.982;15.248;2022-10-23T12:28:02;2.05;;;0.93;;
13866;SDS011;7003;46.982;15.248;2022-10-23T12:30:38;1.33;;;0.98;;
13866;SDS011;7003;46.982;15.248;2022-10-23T12:33:16;1.20;;;1.10;;
13866;SDS011;7003;46.982;15.248;2022-10-23T12:38:52;2.17;;;1.05;;
13866;SDS011;7003;46.982;15.248;2022-10-23T12:41:24;1.15;;;0.90;;
13866;SDS011;7003;46.982;15.248;2022-10-23T12:43:58;1.85;;;1.10;;
13866;SDS011;7003;46.982;15.248;2022-10-23T12:46:32;1.15;;;1.05;;
13866;SDS011;7003;46.982;15.248;2022-10-23T12:49:02;1.30;;;1.20;;
13866;SDS011;7003;46.982;15.248;2022-10-23T12:51:39;1.13;;;1.00;;
13866;SDS011;7003;46.982;15.248;2022-10-23T12:54:13;1.10;;;1.00;;
13866;SDS011;7003;46.982;15.248;2022-10-23T12:56:47;1.20;;;1.10;;
13866;SDS011;7003;46.982;15.248;2022-10-23T12:59:18;1.25;;;1.15;;
13866;SDS011;7003;46.982;15.248;2022-10-23T13:01:50;1.77;;;1.17;;
13866;SDS011;7003;46.982;15.248;2022-10-23T13:04:28;1.27;;;1.02;;
13866;SDS011;7003;46.982;15.248;2022-10-23T13:06:58;1.20;;;1.10;;
13866;SDS011;7003;46.982;15.248;2022-10-23T13:09:29;0.80;;;0.80;;
13866;SDS011;7003;46.982;15.248;2022-10-23T13:12:01;1.00;;;0.90;;
13866;SDS011;7003;46.982;15.248;2022-10-23T13:14:34;0.70;;;0.70;;
13866;SDS011;7003;46.982;15.248;2022-10-23T13:17:04;2.10;;;1.40;;
13866;SDS011;7003;46.982;15.248;2022-10-23T13:19:33;1.23;;;1.13;;
13866;SDS011;7003;46.982;15.248;2022-10-23T13:22:02;1.63;;;1.52;;
13866;SDS011;7003;46.982;15.248;2022-10-23T13:24:30;1.10;;;0.95;;
13866;SDS011;7003;46.982;15.248;2022-10-23T13:26:58;2.65;;;1.02;;
13866;SDS011;7003;46.982;15.248;2022-10-23T13:29:30;1.35;;;1.08;;
13866;SDS011;7003;46.982;15.248;2022-10-23T13:32:10;1.77;;;1.30;;
13866;SDS011;7003;46.982;15.248;2022-10-23T13:34:38;1.73;;;1.20;;
13866;SDS011;7003;46.982;15.248;2022-10-23T13:37:21;0.93;;;0.90;;
13866;SDS011;7003;46.982;15.248;2022-10-23T13:39:58;1.27;;;1.17;;
13866;SDS011;7003;46.982;15.248;2022-10-23T13:42:27;1.77;;;1.15;;
13866;SDS011;7003;46.982;15.248;2022-10-23T13:44:58;1.83;;;1.20;;
13866;SDS011;7003;46.982;15.248;2022-10-23T13:47:30;1.35;;;1.25;;
13866;SDS011;7003;46.982;15.248;2022-10-23T13:50:00;1.20;;;1.10;;
13866;SDS011;7003;46.982;15.248;2022-10-23T13:52:29;1.13;;;1.13;;
13866;SDS011;7003;46.982;15.248;2022-10-23T13:54:58;1.25;;;1.15;;
13866;SDS011;7003;46.982;15.248;2022-10-23T13:57:26;0.90;;;0.82;;
13866;SDS011;7003;46.982;15.248;2022-10-23T13:59:54;1.30;;;1.20;;
13866;SDS011;7003;46.982;15.248;2022-10-23T14:02:23;1.20;;;1.10;;
13866;SDS011;7003;46.982;15.248;2022-10-23T14:04:55;1.60;;;1.30;;
13866;SDS011;7003;46.982;15.248;2022-10-23T14:07:26;1.50;;;1.10;;
13866;SDS011;7003;46.982;15.248;2022-10-23T14:09:55;1.10;;;1.02;;
13866;SDS011;7003;46.982;15.248;2022-10-23T14:12:26;4.63;;;1.52;;
13866;SDS011;7003;46.982;15.248;2022-10-23T14:14:54;1.23;;;1.13;;
13866;SDS011;7003;46.982;15.248;2022-10-23T14:17:23;1.70;;;1.60;;
13866;SDS011;7003;46.982;15.248;2022-10-23T14:19:51;6.00;;;1.45;;
13866;SDS011;7003;46.982;15.248;2022-10-23T14:22:22;1.05;;;1.00;;
13866;SDS011;7003;46.982;15.248;2022-10-23T14:24:53;1.20;;;1.10;;
13866;SDS011;7003;46.982;15.248;2022-10-23T14:27:24;1.52;;;1.42;;
13866;SDS011;7003;46.982;15.248;2022-10-23T14:29:52;1.30;;;1.20;;
13866;SDS011;7003;46.982;15.248;2022-10-23T14:32:23;1.73;;;1.52;;
13866;SDS011;7003;46.982;15.248;2022-10-23T14:34:53;1.35;;;1.33;;
13866;SDS011;7003;46.982;15.248;2022-10-23T14:37:26;1.40;;;1.30;;
13866;SDS011;7003;46.982;15.248;2022-10-23T14:39:57;1.23;;;1.15;;
13866;SDS011;7003;46.982;15.248;2022-10-23T14:42:26;11.05;;;7.55;;
13866;SDS011;7003;46.982;15.248;2022-10-23T14:45:01;19.55;;;16.15;;
13866;SDS011;7003;46.982;15.248;2022-10-23T14:47:31;14.30;;;10.82;;
13866;SDS011;7003;46.982;15.248;2022-10-23T14:50:00;9.27;;;5.22;;
13866;SDS011;7003;46.982;15.248;2022-10-23T14:52:31;2.80;;;2.30;;
13866;SDS011;7003;46.982;15.248;2022-10-23T14:55:00;2.53;;;2.15;;
13866;SDS011;7003;46.982;15.248;2022-10-23T14:57:31;2.40;;;2.08;;
13866;SDS011;7003;46.982;15.248;2022-10-23T14:59:59;1.67;;;1.50;;
13866;SDS011;7003;46.982;15.248;2022-10-23T15:02:28;3.92;;;1.38;;
13866;SDS011;7003;46.982;15.248;2022-10-23T15:04:55;1.20;;;1.13;;
13866;SDS011;7003;46.982;15.248;2022-10-23T15:07:28;3.80;;;1.55;;
13866;SDS011;7003;46.982;15.248;2022-10-23T15:09:56;1.45;;;1.35;;
13866;SDS011;7003;46.982;15.248;2022-10-23T15:12:27;1.40;;;1.30;;
13866;SDS011;7003;46.982;15.248;2022-10-23T15:14:58;1.83;;;1.42;;
13866;SDS011;7003;46.982;15.248;2022-10-23T15:17:28;1.23;;;1.13;;
13866;SDS011;7003;46.982;15.248;2022-10-23T15:19:57;6.45;;;2.55;;
13866;SDS011;7003;46.982;15.248;2022-10-23T15:22:25;3.33;;;2.15;;
13866;SDS011;7003;46.982;15.248;2022-10-23T15:24:55;2.35;;;2.15;;
13866;SDS011;7003;46.982;15.248;2022-10-23T15:27:23;2.22;;;2.03;;